This is the latest recevied weather packets stored in our database for station/object OE3AOG-10. If no packets are shown the sender has not sent any weather packets the latest 10 day(s).
| Time | Temp. | Humidity | Pressure | Rain* | Wind** | Luminosity | Snow |
|---|---|---|---|---|---|---|---|
| 1787427693 | 20° C | 43% | 1021.8 hPa | - | - | - | - |
| 1787424092 | 20.56° C | 39% | 1021.1 hPa | - | - | - | - |
| 1787420492 | 21.67° C | 37% | 1020.2 hPa | - | - | - | - |
| 1787416891 | 23.33° C | 34% | 1019.5 hPa | - | - | - | - |
| 1787413291 | 23.89° C | 32% | 1019.1 hPa | - | - | - | - |
| 1787409691 | 25.56° C | 32% | 1018.6 hPa | - | - | - | - |
| 1787406091 | 26.67° C | 33% | 1018.4 hPa | - | - | - | - |
| 1787402491 | 26.67° C | 35% | 1018.3 hPa | - | - | - | - |
| 1787398891 | 26.11° C | 37% | 1018.5 hPa | - | - | - | - |
| 1787395291 | 25.56° C | 40% | 1018.3 hPa | - | - | - | - |
| 1787391691 | 24.44° C | 43% | 1018.3 hPa | - | - | - | - |
| 1787388090 | 23.33° C | 47% | 1018.3 hPa | - | - | - | - |
| 1787384490 | 22.22° C | 55% | 1017.6 hPa | - | - | - | - |
| 1787380890 | 19.44° C | 61% | 1016.9 hPa | - | - | - | - |
| 1787377290 | 17.78° C | 62% | 1016.7 hPa | - | - | - | - |
| 1787373690 | 16.67° C | 64% | 1016 hPa | - | - | - | - |
| 1787370089 | 16.67° C | 62% | 1015.6 hPa | - | - | - | - |
| 1787366489 | 17.22° C | 61% | 1015.3 hPa | - | - | - | - |
| 1787362888 | 17.78° C | 59% | 1014.5 hPa | - | - | - | - |
| 1787359290 | 17.78° C | 59% | 1013.6 hPa | - | - | - | - |
* Rain since midnight (hover to see other rain measurements)
** Current wind speed in m/s (hover to see current wind gust speed)